sensor_id;sensor_type;location;lat;lon;timestamp;P1;durP1;ratioP1;P2;durP2;ratioP2
67798;SDS011;54596;43.216;27.904;2022-11-10T00:00:20;36.30;;;18.52;;
67798;SDS011;54596;43.216;27.904;2022-11-10T00:02:46;30.25;;;18.98;;
67798;SDS011;54596;43.216;27.904;2022-11-10T00:05:12;31.35;;;18.30;;
67798;SDS011;54596;43.216;27.904;2022-11-10T00:07:39;35.88;;;18.30;;
67798;SDS011;54596;43.216;27.904;2022-11-10T00:10:05;29.67;;;18.08;;
67798;SDS011;54596;43.216;27.904;2022-11-10T00:12:32;32.78;;;18.48;;
67798;SDS011;54596;43.216;27.904;2022-11-10T00:14:58;30.80;;;17.13;;
67798;SDS011;54596;43.216;27.904;2022-11-10T00:17:42;31.50;;;16.92;;
67798;SDS011;54596;43.216;27.904;2022-11-10T00:20:08;29.00;;;17.63;;
67798;SDS011;54596;43.216;27.904;2022-11-10T00:22:35;30.45;;;18.13;;
67798;SDS011;54596;43.216;27.904;2022-11-10T00:25:02;27.70;;;20.13;;
67798;SDS011;54596;43.216;27.904;2022-11-10T00:27:28;31.38;;;23.52;;
67798;SDS011;54596;43.216;27.904;2022-11-10T00:29:54;30.55;;;24.25;;
67798;SDS011;54596;43.216;27.904;2022-11-10T00:32:19;32.38;;;25.95;;
67798;SDS011;54596;43.216;27.904;2022-11-10T00:34:45;29.83;;;24.17;;
67798;SDS011;54596;43.216;27.904;2022-11-10T00:37:10;29.83;;;23.98;;
67798;SDS011;54596;43.216;27.904;2022-11-10T00:39:36;26.98;;;21.05;;
67798;SDS011;54596;43.216;27.904;2022-11-10T00:42:01;28.42;;;20.13;;
67798;SDS011;54596;43.216;27.904;2022-11-10T00:44:27;25.73;;;19.60;;
67798;SDS011;54596;43.216;27.904;2022-11-10T00:46:53;27.35;;;18.58;;
67798;SDS011;54596;43.216;27.904;2022-11-10T00:49:18;23.42;;;17.05;;
67798;SDS011;54596;43.216;27.904;2022-11-10T00:51:44;22.27;;;16.83;;
67798;SDS011;54596;43.216;27.904;2022-11-10T00:54:09;25.48;;;16.98;;
67798;SDS011;54596;43.216;27.904;2022-11-10T00:56:35;23.33;;;15.65;;
67798;SDS011;54596;43.216;27.904;2022-11-10T00:59:00;23.05;;;16.02;;
67798;SDS011;54596;43.216;27.904;2022-11-10T01:01:26;21.52;;;15.75;;
67798;SDS011;54596;43.216;27.904;2022-11-10T01:03:52;21.85;;;15.00;;
67798;SDS011;54596;43.216;27.904;2022-11-10T01:06:18;22.20;;;14.88;;
67798;SDS011;54596;43.216;27.904;2022-11-10T01:08:44;22.50;;;14.85;;
67798;SDS011;54596;43.216;27.904;2022-11-10T01:11:18;24.00;;;15.48;;
67798;SDS011;54596;43.216;27.904;2022-11-10T01:13:45;22.60;;;15.98;;
67798;SDS011;54596;43.216;27.904;2022-11-10T01:16:15;22.45;;;15.75;;
67798;SDS011;54596;43.216;27.904;2022-11-10T01:18:43;24.58;;;15.68;;
67798;SDS011;54596;43.216;27.904;2022-11-10T01:21:12;27.77;;;16.20;;
67798;SDS011;54596;43.216;27.904;2022-11-10T01:23:38;28.20;;;17.00;;
67798;SDS011;54596;43.216;27.904;2022-11-10T01:26:04;24.98;;;17.45;;
67798;SDS011;54596;43.216;27.904;2022-11-10T01:28:31;28.85;;;18.30;;
67798;SDS011;54596;43.216;27.904;2022-11-10T01:31:01;23.95;;;17.20;;
67798;SDS011;54596;43.216;27.904;2022-11-10T01:33:29;27.42;;;17.52;;
67798;SDS011;54596;43.216;27.904;2022-11-10T01:35:54;25.70;;;17.15;;
67798;SDS011;54596;43.216;27.904;2022-11-10T01:38:20;23.35;;;16.63;;
67798;SDS011;54596;43.216;27.904;2022-11-10T01:40:46;28.67;;;17.35;;
67798;SDS011;54596;43.216;27.904;2022-11-10T01:43:12;28.35;;;17.20;;
67798;SDS011;54596;43.216;27.904;2022-11-10T01:48:17;26.63;;;17.75;;
67798;SDS011;54596;43.216;27.904;2022-11-10T01:50:46;27.73;;;17.60;;
67798;SDS011;54596;43.216;27.904;2022-11-10T01:53:15;26.98;;;18.17;;
67798;SDS011;54596;43.216;27.904;2022-11-10T01:55:46;28.35;;;18.65;;
67798;SDS011;54596;43.216;27.904;2022-11-10T01:58:13;33.38;;;19.65;;
67798;SDS011;54596;43.216;27.904;2022-11-10T02:00:42;29.83;;;19.90;;
67798;SDS011;54596;43.216;27.904;2022-11-10T02:03:11;29.38;;;19.27;;
67798;SDS011;54596;43.216;27.904;2022-11-10T02:05:41;27.77;;;17.95;;
67798;SDS011;54596;43.216;27.904;2022-11-10T02:08:08;31.88;;;18.58;;
67798;SDS011;54596;43.216;27.904;2022-11-10T02:10:34;28.60;;;19.25;;
67798;SDS011;54596;43.216;27.904;2022-11-10T02:13:01;30.92;;;20.98;;
67798;SDS011;54596;43.216;27.904;2022-11-10T02:15:27;31.40;;;22.38;;
67798;SDS011;54596;43.216;27.904;2022-11-10T02:17:52;34.50;;;24.45;;
67798;SDS011;54596;43.216;27.904;2022-11-10T02:20:19;30.85;;;23.95;;
67798;SDS011;54596;43.216;27.904;2022-11-10T02:22:45;30.48;;;23.13;;
67798;SDS011;54596;43.216;27.904;2022-11-10T02:25:15;30.83;;;22.40;;
67798;SDS011;54596;43.216;27.904;2022-11-10T02:27:43;29.88;;;21.20;;
67798;SDS011;54596;43.216;27.904;2022-11-10T02:30:09;29.80;;;21.00;;
67798;SDS011;54596;43.216;27.904;2022-11-10T02:32:35;30.15;;;20.67;;
67798;SDS011;54596;43.216;27.904;2022-11-10T02:35:01;35.33;;;21.67;;
67798;SDS011;54596;43.216;27.904;2022-11-10T02:37:26;27.70;;;21.05;;
67798;SDS011;54596;43.216;27.904;2022-11-10T02:39:52;33.50;;;23.13;;
67798;SDS011;54596;43.216;27.904;2022-11-10T02:42:17;41.25;;;26.60;;
67798;SDS011;54596;43.216;27.904;2022-11-10T02:44:43;37.97;;;26.40;;
67798;SDS011;54596;43.216;27.904;2022-11-10T02:47:08;35.70;;;25.35;;
67798;SDS011;54596;43.216;27.904;2022-11-10T02:49:34;37.97;;;25.98;;
67798;SDS011;54596;43.216;27.904;2022-11-10T02:51:59;34.50;;;24.02;;
67798;SDS011;54596;43.216;27.904;2022-11-10T02:54:25;35.55;;;23.70;;
67798;SDS011;54596;43.216;27.904;2022-11-10T02:56:50;32.95;;;23.48;;
67798;SDS011;54596;43.216;27.904;2022-11-10T02:59:16;30.42;;;22.35;;
67798;SDS011;54596;43.216;27.904;2022-11-10T03:01:41;33.85;;;22.15;;
67798;SDS011;54596;43.216;27.904;2022-11-10T03:04:07;30.42;;;22.50;;
67798;SDS011;54596;43.216;27.904;2022-11-10T03:06:32;29.35;;;21.38;;
67798;SDS011;54596;43.216;27.904;2022-11-10T03:08:58;31.73;;;21.05;;
67798;SDS011;54596;43.216;27.904;2022-11-10T03:11:24;34.10;;;22.80;;
67798;SDS011;54596;43.216;27.904;2022-11-10T03:13:49;31.90;;;21.02;;
67798;SDS011;54596;43.216;27.904;2022-11-10T03:16:15;30.83;;;21.38;;
67798;SDS011;54596;43.216;27.904;2022-11-10T03:18:40;30.52;;;20.10;;
67798;SDS011;54596;43.216;27.904;2022-11-10T03:21:06;27.42;;;20.00;;
67798;SDS011;54596;43.216;27.904;2022-11-10T03:23:32;28.33;;;19.48;;
67798;SDS011;54596;43.216;27.904;2022-11-10T03:25:58;28.38;;;18.75;;
67798;SDS011;54596;43.216;27.904;2022-11-10T03:28:24;26.83;;;19.02;;
67798;SDS011;54596;43.216;27.904;2022-11-10T03:30:49;27.10;;;18.98;;
67798;SDS011;54596;43.216;27.904;2022-11-10T03:33:15;25.77;;;18.17;;
67798;SDS011;54596;43.216;27.904;2022-11-10T03:35:41;26.60;;;17.98;;
67798;SDS011;54596;43.216;27.904;2022-11-10T03:38:06;34.45;;;17.48;;
67798;SDS011;54596;43.216;27.904;2022-11-10T03:40:32;26.55;;;16.50;;
67798;SDS011;54596;43.216;27.904;2022-11-10T03:42:57;27.92;;;16.73;;
67798;SDS011;54596;43.216;27.904;2022-11-10T03:45:23;26.15;;;16.33;;
67798;SDS011;54596;43.216;27.904;2022-11-10T03:47:48;26.48;;;15.90;;
67798;SDS011;54596;43.216;27.904;2022-11-10T03:50:14;25.85;;;16.05;;
67798;SDS011;54596;43.216;27.904;2022-11-10T03:52:41;26.00;;;15.60;;
67798;SDS011;54596;43.216;27.904;2022-11-10T03:55:08;24.75;;;15.23;;
67798;SDS011;54596;43.216;27.904;2022-11-10T03:57:36;27.08;;;15.68;;
67798;SDS011;54596;43.216;27.904;2022-11-10T04:00:02;27.50;;;15.82;;
67798;SDS011;54596;43.216;27.904;2022-11-10T04:02:28;28.15;;;15.68;;
67798;SDS011;54596;43.216;27.904;2022-11-10T04:04:53;27.55;;;15.82;;
67798;SDS011;54596;43.216;27.904;2022-11-10T04:07:37;29.08;;;17.38;;
67798;SDS011;54596;43.216;27.904;2022-11-10T04:10:21;34.63;;;22.42;;
67798;SDS011;54596;43.216;27.904;2022-11-10T04:12:47;37.25;;;23.35;;
67798;SDS011;54596;43.216;27.904;2022-11-10T04:15:31;36.00;;;23.25;;
67798;SDS011;54596;43.216;27.904;2022-11-10T04:18:12;32.92;;;21.83;;
67798;SDS011;54596;43.216;27.904;2022-11-10T04:20:45;37.45;;;22.40;;
67798;SDS011;54596;43.216;27.904;2022-11-10T04:23:11;35.40;;;23.05;;
67798;SDS011;54596;43.216;27.904;2022-11-10T04:26:02;36.65;;;22.67;;
67798;SDS011;54596;43.216;27.904;2022-11-10T04:28:51;33.65;;;21.20;;
67798;SDS011;54596;43.216;27.904;2022-11-10T04:31:19;31.83;;;20.80;;
67798;SDS011;54596;43.216;27.904;2022-11-10T04:33:45;64.13;;;21.92;;
67798;SDS011;54596;43.216;27.904;2022-11-10T04:36:14;39.63;;;20.70;;
67798;SDS011;54596;43.216;27.904;2022-11-10T04:38:42;31.77;;;20.50;;
67798;SDS011;54596;43.216;27.904;2022-11-10T04:41:08;33.92;;;19.48;;
67798;SDS011;54596;43.216;27.904;2022-11-10T04:43:35;34.17;;;20.15;;
67798;SDS011;54596;43.216;27.904;2022-11-10T04:46:01;34.08;;;20.83;;
67798;SDS011;54596;43.216;27.904;2022-11-10T04:48:28;31.88;;;19.08;;
67798;SDS011;54596;43.216;27.904;2022-11-10T04:50:54;32.95;;;18.98;;
67798;SDS011;54596;43.216;27.904;2022-11-10T04:53:20;32.80;;;19.35;;
67798;SDS011;54596;43.216;27.904;2022-11-10T04:55:47;33.53;;;19.42;;
67798;SDS011;54596;43.216;27.904;2022-11-10T04:58:13;32.30;;;18.95;;
67798;SDS011;54596;43.216;27.904;2022-11-10T05:00:39;132.88;;;24.30;;
67798;SDS011;54596;43.216;27.904;2022-11-10T05:03:07;33.55;;;18.95;;
67798;SDS011;54596;43.216;27.904;2022-11-10T05:05:34;33.63;;;20.38;;
67798;SDS011;54596;43.216;27.904;2022-11-10T05:08:01;33.97;;;19.38;;
67798;SDS011;54596;43.216;27.904;2022-11-10T05:10:27;30.98;;;20.48;;
67798;SDS011;54596;43.216;27.904;2022-11-10T05:12:53;35.28;;;22.08;;
67798;SDS011;54596;43.216;27.904;2022-11-10T05:15:19;44.00;;;24.73;;
67798;SDS011;54596;43.216;27.904;2022-11-10T05:17:49;40.50;;;26.42;;
67798;SDS011;54596;43.216;27.904;2022-11-10T05:20:18;45.65;;;27.88;;
67798;SDS011;54596;43.216;27.904;2022-11-10T05:22:48;137.10;;;30.65;;
67798;SDS011;54596;43.216;27.904;2022-11-10T05:25:33;75.15;;;28.40;;
67798;SDS011;54596;43.216;27.904;2022-11-10T05:28:00;50.75;;;28.85;;
67798;SDS011;54596;43.216;27.904;2022-11-10T05:30:26;45.35;;;27.17;;
67798;SDS011;54596;43.216;27.904;2022-11-10T05:32:51;46.03;;;25.30;;
67798;SDS011;54596;43.216;27.904;2022-11-10T05:35:17;40.78;;;24.40;;
67798;SDS011;54596;43.216;27.904;2022-11-10T05:37:42;41.83;;;23.95;;
67798;SDS011;54596;43.216;27.904;2022-11-10T05:40:08;46.00;;;25.55;;
67798;SDS011;54596;43.216;27.904;2022-11-10T05:42:34;40.92;;;25.20;;
67798;SDS011;54596;43.216;27.904;2022-11-10T05:45:07;42.13;;;25.15;;
67798;SDS011;54596;43.216;27.904;2022-11-10T05:47:35;46.42;;;24.95;;
67798;SDS011;54596;43.216;27.904;2022-11-10T05:50:01;41.78;;;23.88;;
67798;SDS011;54596;43.216;27.904;2022-11-10T05:52:26;44.40;;;23.60;;
67798;SDS011;54596;43.216;27.904;2022-11-10T05:54:52;42.13;;;23.85;;
67798;SDS011;54596;43.216;27.904;2022-11-10T05:57:19;43.17;;;24.88;;
67798;SDS011;54596;43.216;27.904;2022-11-10T05:59:45;42.33;;;25.77;;
67798;SDS011;54596;43.216;27.904;2022-11-10T06:02:10;38.53;;;26.83;;
67798;SDS011;54596;43.216;27.904;2022-11-10T06:04:36;37.72;;;23.05;;
67798;SDS011;54596;43.216;27.904;2022-11-10T06:07:01;38.15;;;22.90;;
67798;SDS011;54596;43.216;27.904;2022-11-10T06:09:27;35.13;;;22.42;;
67798;SDS011;54596;43.216;27.904;2022-11-10T06:11:52;34.90;;;25.52;;
67798;SDS011;54596;43.216;27.904;2022-11-10T06:14:18;34.97;;;21.70;;
67798;SDS011;54596;43.216;27.904;2022-11-10T06:16:43;30.80;;;18.27;;
67798;SDS011;54596;43.216;27.904;2022-11-10T06:19:08;30.98;;;19.15;;
67798;SDS011;54596;43.216;27.904;2022-11-10T06:21:34;33.85;;;20.85;;
67798;SDS011;54596;43.216;27.904;2022-11-10T06:23:59;30.58;;;18.15;;
67798;SDS011;54596;43.216;27.904;2022-11-10T06:26:25;28.45;;;19.90;;
67798;SDS011;54596;43.216;27.904;2022-11-10T06:28:50;25.60;;;17.25;;
67798;SDS011;54596;43.216;27.904;2022-11-10T06:31:16;30.38;;;21.00;;
67798;SDS011;54596;43.216;27.904;2022-11-10T06:33:41;28.60;;;17.45;;
67798;SDS011;54596;43.216;27.904;2022-11-10T06:36:07;27.52;;;16.90;;
67798;SDS011;54596;43.216;27.904;2022-11-10T06:38:33;24.33;;;16.70;;
67798;SDS011;54596;43.216;27.904;2022-11-10T06:40:58;24.80;;;15.80;;
67798;SDS011;54596;43.216;27.904;2022-11-10T06:43:24;25.67;;;15.82;;
67798;SDS011;54596;43.216;27.904;2022-11-10T06:45:49;26.15;;;17.55;;
67798;SDS011;54596;43.216;27.904;2022-11-10T06:48:15;35.03;;;21.92;;
67798;SDS011;54596;43.216;27.904;2022-11-10T06:50:40;35.78;;;18.63;;
67798;SDS011;54596;43.216;27.904;2022-11-10T06:53:06;32.90;;;17.75;;
67798;SDS011;54596;43.216;27.904;2022-11-10T06:55:32;36.40;;;21.75;;
67798;SDS011;54596;43.216;27.904;2022-11-10T06:57:57;41.72;;;20.05;;
67798;SDS011;54596;43.216;27.904;2022-11-10T07:00:23;40.63;;;25.58;;
67798;SDS011;54596;43.216;27.904;2022-11-10T07:02:59;44.90;;;23.95;;
67798;SDS011;54596;43.216;27.904;2022-11-10T07:05:33;38.10;;;20.15;;
67798;SDS011;54596;43.216;27.904;2022-11-10T07:08:00;36.95;;;21.70;;
67798;SDS011;54596;43.216;27.904;2022-11-10T07:10:34;40.78;;;20.83;;
67798;SDS011;54596;43.216;27.904;2022-11-10T07:13:01;33.22;;;21.60;;
67798;SDS011;54596;43.216;27.904;2022-11-10T07:15:27;46.45;;;23.92;;
67798;SDS011;54596;43.216;27.904;2022-11-10T07:17:54;46.70;;;25.80;;
67798;SDS011;54596;43.216;27.904;2022-11-10T07:20:19;45.08;;;27.98;;
67798;SDS011;54596;43.216;27.904;2022-11-10T07:22:45;55.97;;;29.75;;
67798;SDS011;54596;43.216;27.904;2022-11-10T07:25:11;51.47;;;29.02;;
67798;SDS011;54596;43.216;27.904;2022-11-10T07:27:36;50.00;;;30.13;;
67798;SDS011;54596;43.216;27.904;2022-11-10T07:30:03;54.53;;;30.80;;
67798;SDS011;54596;43.216;27.904;2022-11-10T07:32:29;55.85;;;30.25;;
67798;SDS011;54596;43.216;27.904;2022-11-10T07:34:55;52.10;;;32.28;;
67798;SDS011;54596;43.216;27.904;2022-11-10T07:37:20;52.15;;;32.00;;
67798;SDS011;54596;43.216;27.904;2022-11-10T07:39:46;54.00;;;31.20;;
67798;SDS011;54596;43.216;27.904;2022-11-10T07:42:11;52.53;;;30.33;;
67798;SDS011;54596;43.216;27.904;2022-11-10T07:44:36;51.55;;;29.63;;
67798;SDS011;54596;43.216;27.904;2022-11-10T07:47:02;53.40;;;29.20;;
67798;SDS011;54596;43.216;27.904;2022-11-10T07:49:27;51.00;;;27.90;;
67798;SDS011;54596;43.216;27.904;2022-11-10T07:51:53;52.38;;;29.63;;
67798;SDS011;54596;43.216;27.904;2022-11-10T07:54:18;51.47;;;28.92;;
67798;SDS011;54596;43.216;27.904;2022-11-10T07:56:44;55.58;;;29.90;;
67798;SDS011;54596;43.216;27.904;2022-11-10T07:59:09;56.92;;;30.70;;
67798;SDS011;54596;43.216;27.904;2022-11-10T08:01:35;52.22;;;26.67;;
67798;SDS011;54596;43.216;27.904;2022-11-10T08:04:00;46.03;;;25.45;;
67798;SDS011;54596;43.216;27.904;2022-11-10T08:06:26;46.28;;;25.80;;
67798;SDS011;54596;43.216;27.904;2022-11-10T08:08:51;39.28;;;26.38;;
67798;SDS011;54596;43.216;27.904;2022-11-10T08:11:17;47.72;;;28.40;;
67798;SDS011;54596;43.216;27.904;2022-11-10T08:13:42;51.55;;;29.90;;
67798;SDS011;54596;43.216;27.904;2022-11-10T08:16:08;47.92;;;28.08;;
67798;SDS011;54596;43.216;27.904;2022-11-10T08:18:33;42.33;;;22.38;;
67798;SDS011;54596;43.216;27.904;2022-11-10T08:21:00;36.53;;;22.00;;
67798;SDS011;54596;43.216;27.904;2022-11-10T08:23:26;30.77;;;17.23;;
67798;SDS011;54596;43.216;27.904;2022-11-10T08:25:58;16.45;;;9.15;;
67798;SDS011;54596;43.216;27.904;2022-11-10T08:28:24;17.65;;;8.52;;
67798;SDS011;54596;43.216;27.904;2022-11-10T08:30:50;13.23;;;4.50;;
67798;SDS011;54596;43.216;27.904;2022-11-10T08:33:17;11.13;;;3.47;;
67798;SDS011;54596;43.216;27.904;2022-11-10T08:35:44;8.15;;;3.10;;
67798;SDS011;54596;43.216;27.904;2022-11-10T08:38:18;5.45;;;2.50;;
67798;SDS011;54596;43.216;27.904;2022-11-10T08:40:46;7.70;;;3.20;;
67798;SDS011;54596;43.216;27.904;2022-11-10T08:43:12;5.53;;;2.58;;
67798;SDS011;54596;43.216;27.904;2022-11-10T08:45:39;7.28;;;3.10;;
67798;SDS011;54596;43.216;27.904;2022-11-10T08:48:06;7.82;;;2.70;;
67798;SDS011;54596;43.216;27.904;2022-11-10T08:50:34;8.63;;;3.28;;
67798;SDS011;54596;43.216;27.904;2022-11-10T08:53:00;9.70;;;3.22;;
67798;SDS011;54596;43.216;27.904;2022-11-10T08:55:27;7.15;;;3.58;;
67798;SDS011;54596;43.216;27.904;2022-11-10T08:57:56;6.85;;;3.30;;
67798;SDS011;54596;43.216;27.904;2022-11-10T09:00:23;7.90;;;3.83;;
67798;SDS011;54596;43.216;27.904;2022-11-10T09:02:48;8.32;;;3.00;;
67798;SDS011;54596;43.216;27.904;2022-11-10T09:05:14;7.88;;;3.53;;
67798;SDS011;54596;43.216;27.904;2022-11-10T09:07:43;8.50;;;3.72;;
67798;SDS011;54596;43.216;27.904;2022-11-10T09:10:09;11.95;;;4.18;;
67798;SDS011;54596;43.216;27.904;2022-11-10T09:12:35;8.90;;;3.70;;
67798;SDS011;54596;43.216;27.904;2022-11-10T09:15:01;7.97;;;3.63;;
67798;SDS011;54596;43.216;27.904;2022-11-10T09:17:27;8.68;;;3.78;;
67798;SDS011;54596;43.216;27.904;2022-11-10T09:19:52;6.97;;;3.50;;
67798;SDS011;54596;43.216;27.904;2022-11-10T09:22:18;7.30;;;3.13;;
67798;SDS011;54596;43.216;27.904;2022-11-10T09:24:43;9.40;;;3.40;;
67798;SDS011;54596;43.216;27.904;2022-11-10T09:27:09;7.05;;;3.40;;
67798;SDS011;54596;43.216;27.904;2022-11-10T09:29:35;8.25;;;3.53;;
67798;SDS011;54596;43.216;27.904;2022-11-10T09:32:00;8.77;;;4.03;;
67798;SDS011;54596;43.216;27.904;2022-11-10T09:34:26;7.45;;;3.30;;
67798;SDS011;54596;43.216;27.904;2022-11-10T09:36:52;8.32;;;3.85;;
67798;SDS011;54596;43.216;27.904;2022-11-10T09:39:17;7.45;;;3.40;;
67798;SDS011;54596;43.216;27.904;2022-11-10T09:41:43;7.78;;;3.55;;
67798;SDS011;54596;43.216;27.904;2022-11-10T09:46:35;9.15;;;3.40;;
67798;SDS011;54596;43.216;27.904;2022-11-10T09:51:45;8.27;;;3.60;;
67798;SDS011;54596;43.216;27.904;2022-11-10T09:57:15;8.15;;;3.92;;
67798;SDS011;54596;43.216;27.904;2022-11-10T09:59:44;7.05;;;3.10;;
67798;SDS011;54596;43.216;27.904;2022-11-10T10:05:37;7.88;;;3.17;;
67798;SDS011;54596;43.216;27.904;2022-11-10T10:08:01;8.38;;;3.80;;
67798;SDS011;54596;43.216;27.904;2022-11-10T10:10:43;8.63;;;3.37;;
67798;SDS011;54596;43.216;27.904;2022-11-10T10:23:53;8.43;;;3.60;;
67798;SDS011;54596;43.216;27.904;2022-11-10T10:26:29;10.50;;;3.53;;
67798;SDS011;54596;43.216;27.904;2022-11-10T10:29:04;8.35;;;3.70;;
67798;SDS011;54596;43.216;27.904;2022-11-10T10:31:42;8.95;;;3.70;;
67798;SDS011;54596;43.216;27.904;2022-11-10T10:34:16;10.20;;;4.38;;
67798;SDS011;54596;43.216;27.904;2022-11-10T10:36:44;9.20;;;4.72;;
67798;SDS011;54596;43.216;27.904;2022-11-10T10:39:25;8.55;;;3.92;;
67798;SDS011;54596;43.216;27.904;2022-11-10T10:47:39;7.80;;;4.00;;
67798;SDS011;54596;43.216;27.904;2022-11-10T10:53:11;8.60;;;3.75;;
67798;SDS011;54596;43.216;27.904;2022-11-10T10:55:55;7.50;;;3.97;;
67798;SDS011;54596;43.216;27.904;2022-11-10T10:58:32;7.60;;;3.42;;
67798;SDS011;54596;43.216;27.904;2022-11-10T11:03:44;8.52;;;3.80;;
67798;SDS011;54596;43.216;27.904;2022-11-10T11:09:25;8.35;;;3.35;;
67798;SDS011;54596;43.216;27.904;2022-11-10T11:11:35;7.93;;;3.20;;
67798;SDS011;54596;43.216;27.904;2022-11-10T11:14:35;7.05;;;3.50;;
67798;SDS011;54596;43.216;27.904;2022-11-10T11:17:01;6.95;;;3.53;;
67798;SDS011;54596;43.216;27.904;2022-11-10T11:19:38;9.40;;;3.83;;
67798;SDS011;54596;43.216;27.904;2022-11-10T11:24:53;9.07;;;3.65;;
67798;SDS011;54596;43.216;27.904;2022-11-10T11:27:27;10.85;;;3.90;;
67798;SDS011;54596;43.216;27.904;2022-11-10T11:40:44;8.00;;;3.25;;
67798;SDS011;54596;43.216;27.904;2022-11-10T11:43:37;9.55;;;3.65;;
67798;SDS011;54596;43.216;27.904;2022-11-10T11:51:25;8.93;;;3.70;;
67798;SDS011;54596;43.216;27.904;2022-11-10T11:56:46;6.75;;;3.33;;
67798;SDS011;54596;43.216;27.904;2022-11-10T11:59:30;8.00;;;3.67;;
67798;SDS011;54596;43.216;27.904;2022-11-10T12:02:39;8.70;;;3.55;;
67798;SDS011;54596;43.216;27.904;2022-11-10T12:18:44;8.63;;;3.83;;
67798;SDS011;54596;43.216;27.904;2022-11-10T12:26:10;10.05;;;4.35;;
67798;SDS011;54596;43.216;27.904;2022-11-10T12:31:30;8.85;;;3.60;;
67798;SDS011;54596;43.216;27.904;2022-11-10T12:34:26;7.97;;;3.80;;
67798;SDS011;54596;43.216;27.904;2022-11-10T12:36:51;9.68;;;3.70;;
67798;SDS011;54596;43.216;27.904;2022-11-10T12:42:22;9.33;;;3.60;;
67798;SDS011;54596;43.216;27.904;2022-11-10T12:47:24;6.75;;;3.58;;
67798;SDS011;54596;43.216;27.904;2022-11-10T12:52:36;10.25;;;5.05;;
67798;SDS011;54596;43.216;27.904;2022-11-10T12:55:11;8.70;;;3.95;;
67798;SDS011;54596;43.216;27.904;2022-11-10T12:57:38;7.78;;;3.78;;
67798;SDS011;54596;43.216;27.904;2022-11-10T13:00:21;6.70;;;3.38;;
67798;SDS011;54596;43.216;27.904;2022-11-10T13:02:47;7.97;;;3.80;;
67798;SDS011;54596;43.216;27.904;2022-11-10T13:08:20;8.50;;;4.20;;
67798;SDS011;54596;43.216;27.904;2022-11-10T13:10:54;7.00;;;3.60;;
67798;SDS011;54596;43.216;27.904;2022-11-10T13:13:24;8.82;;;3.92;;
67798;SDS011;54596;43.216;27.904;2022-11-10T13:15:51;7.00;;;3.80;;
67798;SDS011;54596;43.216;27.904;2022-11-10T13:20:56;9.98;;;4.10;;
67798;SDS011;54596;43.216;27.904;2022-11-10T13:34:04;8.15;;;4.00;;
67798;SDS011;54596;43.216;27.904;2022-11-10T13:36:37;7.32;;;3.70;;
67798;SDS011;54596;43.216;27.904;2022-11-10T13:44:32;8.38;;;4.10;;
67798;SDS011;54596;43.216;27.904;2022-11-10T13:52:24;8.65;;;4.13;;
67798;SDS011;54596;43.216;27.904;2022-11-10T14:00:23;7.90;;;3.78;;
67798;SDS011;54596;43.216;27.904;2022-11-10T14:02:55;9.15;;;4.32;;
67798;SDS011;54596;43.216;27.904;2022-11-10T14:08:15;7.68;;;3.92;;
67798;SDS011;54596;43.216;27.904;2022-11-10T14:10:46;10.88;;;4.22;;
67798;SDS011;54596;43.216;27.904;2022-11-10T14:13:44;10.27;;;4.30;;
67798;SDS011;54596;43.216;27.904;2022-11-10T14:16:15;11.90;;;4.20;;
67798;SDS011;54596;43.216;27.904;2022-11-10T14:18:51;8.85;;;4.32;;
67798;SDS011;54596;43.216;27.904;2022-11-10T14:21:24;10.63;;;5.10;;
67798;SDS011;54596;43.216;27.904;2022-11-10T14:24:10;10.40;;;4.40;;
67798;SDS011;54596;43.216;27.904;2022-11-10T14:26:45;10.55;;;4.63;;
67798;SDS011;54596;43.216;27.904;2022-11-10T14:29:34;8.60;;;3.90;;
67798;SDS011;54596;43.216;27.904;2022-11-10T14:32:20;8.65;;;4.50;;
67798;SDS011;54596;43.216;27.904;2022-11-10T14:34:48;8.07;;;4.50;;
67798;SDS011;54596;43.216;27.904;2022-11-10T14:37:20;10.35;;;4.43;;
67798;SDS011;54596;43.216;27.904;2022-11-10T14:39:47;10.03;;;4.60;;
67798;SDS011;54596;43.216;27.904;2022-11-10T14:42:19;11.35;;;4.30;;
67798;SDS011;54596;43.216;27.904;2022-11-10T14:45:03;9.43;;;5.15;;
67798;SDS011;54596;43.216;27.904;2022-11-10T14:47:32;9.93;;;4.80;;
67798;SDS011;54596;43.216;27.904;2022-11-10T14:50:19;9.48;;;5.10;;
67798;SDS011;54596;43.216;27.904;2022-11-10T14:52:47;8.10;;;4.72;;
67798;SDS011;54596;43.216;27.904;2022-11-10T14:55:18;9.48;;;4.88;;
67798;SDS011;54596;43.216;27.904;2022-11-10T14:57:50;10.65;;;4.72;;
67798;SDS011;54596;43.216;27.904;2022-11-10T15:00:37;13.43;;;4.90;;
67798;SDS011;54596;43.216;27.904;2022-11-10T15:03:04;10.80;;;5.35;;
67798;SDS011;54596;43.216;27.904;2022-11-10T15:05:31;10.77;;;5.20;;
67798;SDS011;54596;43.216;27.904;2022-11-10T15:07:57;10.40;;;5.50;;
67798;SDS011;54596;43.216;27.904;2022-11-10T15:10:25;13.23;;;5.90;;
67798;SDS011;54596;43.216;27.904;2022-11-10T15:13:02;11.32;;;5.15;;
67798;SDS011;54596;43.216;27.904;2022-11-10T15:15:37;11.80;;;5.70;;
67798;SDS011;54596;43.216;27.904;2022-11-10T15:18:03;11.80;;;6.47;;
67798;SDS011;54596;43.216;27.904;2022-11-10T15:20:31;13.10;;;7.20;;
67798;SDS011;54596;43.216;27.904;2022-11-10T15:23:05;11.50;;;6.95;;
67798;SDS011;54596;43.216;27.904;2022-11-10T15:25:45;17.10;;;8.23;;
67798;SDS011;54596;43.216;27.904;2022-11-10T15:30:36;17.80;;;8.70;;
67798;SDS011;54596;43.216;27.904;2022-11-10T15:33:08;12.93;;;7.43;;
67798;SDS011;54596;43.216;27.904;2022-11-10T15:35:34;14.82;;;8.50;;
67798;SDS011;54596;43.216;27.904;2022-11-10T15:38:01;18.55;;;8.82;;
67798;SDS011;54596;43.216;27.904;2022-11-10T15:45:57;20.42;;;10.50;;
67798;SDS011;54596;43.216;27.904;2022-11-10T15:48:25;19.58;;;10.65;;
67798;SDS011;54596;43.216;27.904;2022-11-10T15:51:00;20.75;;;13.40;;
67798;SDS011;54596;43.216;27.904;2022-11-10T15:53:27;39.05;;;28.63;;
67798;SDS011;54596;43.216;27.904;2022-11-10T15:55:55;25.67;;;15.57;;
67798;SDS011;54596;43.216;27.904;2022-11-10T15:58:21;30.77;;;13.18;;
67798;SDS011;54596;43.216;27.904;2022-11-10T16:00:47;28.70;;;13.60;;
67798;SDS011;54596;43.216;27.904;2022-11-10T16:03:14;26.73;;;13.40;;
67798;SDS011;54596;43.216;27.904;2022-11-10T16:05:42;28.08;;;14.50;;
67798;SDS011;54596;43.216;27.904;2022-11-10T16:08:18;29.17;;;15.05;;
67798;SDS011;54596;43.216;27.904;2022-11-10T16:10:49;31.55;;;15.80;;
67798;SDS011;54596;43.216;27.904;2022-11-10T16:13:17;28.80;;;15.97;;
67798;SDS011;54596;43.216;27.904;2022-11-10T16:15:47;29.35;;;16.80;;
67798;SDS011;54596;43.216;27.904;2022-11-10T16:18:14;33.08;;;16.65;;
67798;SDS011;54596;43.216;27.904;2022-11-10T16:20:43;33.28;;;17.58;;
67798;SDS011;54596;43.216;27.904;2022-11-10T16:23:09;35.92;;;17.83;;
67798;SDS011;54596;43.216;27.904;2022-11-10T16:25:34;36.78;;;17.17;;
67798;SDS011;54596;43.216;27.904;2022-11-10T16:28:01;33.78;;;20.88;;
67798;SDS011;54596;43.216;27.904;2022-11-10T16:30:28;34.60;;;18.13;;
67798;SDS011;54596;43.216;27.904;2022-11-10T16:32:54;36.28;;;18.60;;
67798;SDS011;54596;43.216;27.904;2022-11-10T16:35:20;35.97;;;21.17;;
67798;SDS011;54596;43.216;27.904;2022-11-10T16:37:45;38.75;;;20.35;;